Time;durP1;ratioP1;P1;durP2;ratioP2;P2;SDS_P1;SDS_P2;PMS_P1;PMS_P2;Temp;Humidity;BMP_temperature;BMP_pressure;BME280_temperature;BME280_humidity;BME280_pressure;Samples;Min_cycle;Max_cycle;Signal;HPM_P1;HPM_P2
2022/09/29 03:01:53;;;;;;;15.40;10.98;;;;;;;7.83;65.59;99449.72;5831645;23;21120;-67
2022/09/29 03:04:23;;;;;;;15.82;11.73;;;;;;;7.90;65.44;99452.56;4940598;28;20047;-67
2022/09/29 03:06:51;;;;;;;16.92;11.98;;;;;;;7.97;65.07;99453.53;4951487;29;20047;-73
2022/09/29 03:09:17;;;;;;;16.05;11.75;;;;;;;7.96;65.22;99454.56;4951421;29;20051;-65
2022/09/29 03:11:44;;;;;;;21.45;12.23;;;;;;;7.90;65.24;99452.56;4948077;28;20051;-69
2022/09/29 03:14:11;;;;;;;17.38;12.38;;;;;;;7.89;65.48;99448.25;4970485;28;20054;-65
2022/09/29 03:16:38;;;;;;;18.05;12.63;;;;;;;8.03;65.03;99446.69;4971072;28;20050;-66
2022/09/29 03:19:06;;;;;;;24.58;12.77;;;;;;;7.97;65.18;99447.38;4967888;28;20138;-65
2022/09/29 03:21:34;;;;;;;19.92;12.68;;;;;;;8.10;64.77;99450.31;4951703;29;20051;-65
2022/09/29 03:24:00;;;;;;;18.92;12.77;;;;;;;8.02;65.30;99448.53;4948032;29;20053;-66
2022/09/29 03:26:29;;;;;;;20.20;12.82;;;;;;;8.14;64.63;99448.94;4952582;29;20063;-66
2022/09/29 03:28:56;;;;;;;17.55;12.35;;;;;;;8.16;64.71;99452.28;4957155;29;20043;-71
2022/09/29 03:31:22;;;;;;;20.83;13.43;;;;;;;8.16;64.49;99446.09;4959479;29;20047;-71
2022/09/29 03:33:49;;;;;;;18.25;12.95;;;;;;;8.21;64.81;99447.22;4960547;29;20487;-71
2022/09/29 03:36:15;;;;;;;19.25;12.85;;;;;;;8.19;64.92;99454.56;4956364;29;20047;-70
2022/09/29 03:38:44;;;;;;;19.65;13.52;;;;;;;8.23;64.61;99453.25;4942431;29;20040;-72
2022/09/29 03:41:10;;;;;;;18.77;13.68;;;;;;;8.29;64.41;99449.84;4941559;29;20052;-71
2022/09/29 03:43:37;;;;;;;17.73;13.15;;;;;;;8.32;64.45;99452.16;4940331;29;20050;-72
2022/09/29 03:46:03;;;;;;;20.83;13.88;;;;;;;8.35;64.46;99454.50;4938201;29;20049;-71
2022/09/29 03:48:30;;;;;;;23.65;14.10;;;;;;;8.30;64.37;99454.19;4940065;29;20115;-71
2022/09/29 03:50:57;;;;;;;21.33;14.73;;;;;;;8.26;64.73;99455.56;4940242;29;20198;-70
2022/09/29 03:53:24;;;;;;;18.17;13.52;;;;;;;8.21;64.91;99465.09;4941731;29;20059;-70
2022/09/29 03:55:50;;;;;;;20.30;14.50;;;;;;;8.25;64.94;99458.41;4944107;29;20051;-70
2022/09/29 03:58:17;;;;;;;22.60;14.10;;;;;;;8.22;64.84;99466.75;4943884;29;20133;-70
2022/09/29 04:00:44;;;;;;;22.33;14.60;;;;;;;8.14;65.37;99465.81;4943862;29;20051;-71
2022/09/29 04:03:10;;;;;;;19.48;14.32;;;;;;;8.13;65.50;99474.00;4943010;29;20052;-70
2022/09/29 04:05:38;;;;;;;18.50;13.40;;;;;;;7.94;65.68;99475.25;4943339;29;20047;-71
2022/09/29 04:08:05;;;;;;;22.67;14.30;;;;;;;7.96;65.71;99472.41;4941611;29;20114;-69
2022/09/29 04:10:36;;;;;;;20.52;13.65;;;;;;;8.01;65.37;99475.38;4948813;29;20061;-71
2022/09/29 04:13:03;;;;;;;22.07;15.10;;;;;;;8.21;64.84;99475.78;4962235;29;20491;-69
2022/09/29 04:15:30;;;;;;;23.15;14.95;;;;;;;8.09;65.53;99476.19;4962727;29;20285;-70
2022/09/29 04:17:57;;;;;;;22.30;15.43;;;;;;;7.95;66.11;99476.94;4961860;29;20054;-68
2022/09/29 04:20:24;;;;;;;21.95;15.23;;;;;;;7.89;65.96;99478.44;4964076;28;20159;-69
2022/09/29 04:22:51;;;;;;;24.35;14.88;;;;;;;7.89;66.23;99482.97;4962393;29;20042;-70
2022/09/29 04:25:18;;;;;;;23.85;15.90;;;;;;;7.64;66.59;99482.19;4963075;29;20043;-69
2022/09/29 04:27:44;;;;;;;24.73;15.75;;;;;;;7.90;66.30;99487.28;4962600;28;20047;-70
2022/09/29 04:30:11;;;;;;;19.88;13.90;;;;;;;7.90;65.76;99490.78;4952397;29;20039;-70
2022/09/29 04:32:37;;;;;;;22.10;14.40;;;;;;;8.16;65.22;99492.34;4961794;28;20055;-70
2022/09/29 04:35:04;;;;;;;22.65;14.80;;;;;;;8.09;65.43;99491.41;4961958;28;20054;-70
2022/09/29 04:37:31;;;;;;;25.50;14.45;;;;;;;8.06;65.05;99491.75;4962691;29;20062;-70
2022/09/29 04:39:57;;;;;;;24.08;15.48;;;;;;;8.00;65.25;99501.25;4964094;29;20047;-69
2022/09/29 04:42:24;;;;;;;20.88;14.18;;;;;;;8.10;65.14;99491.19;4965742;29;20047;-70
2022/09/29 04:44:50;;;;;;;22.85;15.93;;;;;;;7.98;65.50;99494.41;4966359;28;20128;-71
2022/09/29 04:47:17;;;;;;;21.27;15.48;;;;;;;8.06;65.03;99495.22;4965481;28;20159;-70
2022/09/29 04:49:43;;;;;;;21.88;15.13;;;;;;;8.16;64.96;99499.50;4965850;29;20052;-72
2022/09/29 04:52:11;;;;;;;25.30;15.55;;;;;;;8.18;64.69;99500.19;4937614;29;20055;-71
2022/09/29 04:54:37;;;;;;;20.65;13.88;;;;;;;8.21;64.80;99503.34;4951975;28;20054;-66
2022/09/29 04:57:05;;;;;;;24.02;16.13;;;;;;;8.21;64.61;99500.66;4954310;28;20051;-65
2022/09/29 04:59:32;;;;;;;24.63;15.25;;;;;;;8.24;64.47;99502.16;4955073;29;20478;-67
2022/09/29 05:01:59;;;;;;;22.05;15.73;;;;;;;8.17;64.79;99501.19;4952592;28;20052;-67
2022/09/29 05:04:25;;;;;;;30.15;15.90;;;;;;;8.02;65.25;99506.41;4955409;29;20130;-65
2022/09/29 05:06:52;;;;;;;21.95;14.82;;;;;;;8.04;65.21;99512.44;4955243;29;20043;-67
2022/09/29 05:09:18;;;;;;;22.00;15.45;;;;;;;8.01;65.33;99510.94;4953632;28;20047;-65
2022/09/29 05:11:50;;;;;;;21.95;15.80;;;;;;;7.94;65.56;99519.81;4938217;29;20461;-66
2022/09/29 05:14:16;;;;;;;23.58;16.27;;;;;;;8.08;65.01;99511.06;4934849;29;20056;-67
2022/09/29 05:16:43;;;;;;;19.63;14.45;;;;;;;8.17;64.92;99511.88;4935570;29;20087;-67
2022/09/29 05:19:09;;;;;;;29.88;15.45;;;;;;;8.16;64.75;99516.41;4934693;28;20187;-65
2022/09/29 05:21:36;;;;;;;29.73;16.10;;;;;;;8.09;65.11;99515.44;4935360;29;20054;-66
2022/09/29 05:24:02;;;;;;;24.00;15.90;;;;;;;8.13;64.98;99522.91;4934082;28;20494;-66
2022/09/29 05:26:29;;;;;;;23.27;14.82;;;;;;;8.16;65.01;99528.91;4934570;29;20048;-66
2022/09/29 05:28:55;;;;;;;23.90;15.23;;;;;;;8.18;64.90;99513.53;4935454;29;20051;-66
2022/09/29 05:31:22;;;;;;;22.55;15.13;;;;;;;8.22;64.49;99517.53;4935231;29;20048;-66
2022/09/29 05:33:48;;;;;;;22.80;16.15;;;;;;;8.26;64.56;99513.50;4924744;28;20051;-66
2022/09/29 05:36:15;;;;;;;25.58;16.38;;;;;;;8.22;64.83;99518.34;4934218;29;20056;-66
2022/09/29 05:38:41;;;;;;;23.63;16.40;;;;;;;8.28;64.41;99524.84;4934078;29;20052;-66
2022/09/29 05:41:11;;;;;;;26.25;15.85;;;;;;;8.19;64.33;99532.06;4934437;29;20055;-66
2022/09/29 05:43:39;;;;;;;31.77;16.63;;;;;;;8.29;64.30;99530.00;4951357;29;20070;-66
2022/09/29 05:46:07;;;;;;;20.23;14.95;;;;;;;8.31;64.39;99529.84;4945338;29;20151;-66
2022/09/29 05:48:34;;;;;;;23.50;15.05;;;;;;;8.24;64.45;99523.53;4953193;29;20526;-66
2022/09/29 05:51:12;;;;;;;27.45;15.85;;;;;;;8.17;64.83;99528.75;4953396;28;20043;-66
2022/09/29 05:53:39;;;;;;;28.98;15.07;;;;;;;8.29;64.53;99535.34;4952608;28;20442;-67
2022/09/29 05:56:11;;;;;;;29.20;16.90;;;;;;;8.30;64.46;99528.19;4950252;29;20054;-66
2022/09/29 05:58:39;;;;;;;23.75;16.35;;;;;;;8.24;64.35;99526.22;4952988;28;20058;-66
2022/09/29 06:01:26;;;;;;;25.00;15.27;;;;;;;8.31;64.31;99529.84;4952852;29;20047;-66
2022/09/29 06:03:53;;;;;;;28.92;16.92;;;;;;;8.30;63.93;99534.38;4952374;28;20483;-67
2022/09/29 06:06:23;;;;;;;24.15;15.30;;;;;;;8.33;63.98;99544.72;4952614;28;20062;-62
2022/09/29 06:08:50;;;;;;;24.85;15.85;;;;;;;8.40;63.90;99543.97;4954771;28;20043;-64
2022/09/29 06:11:19;;;;;;;24.58;16.92;;;;;;;8.35;64.32;99537.31;4954468;28;21485;-62
2022/09/29 06:13:48;;;;;;;23.25;15.68;;;;;;;8.25;64.51;99541.22;4954790;28;20058;-61
2022/09/29 06:16:16;;;;;;;24.77;16.15;;;;;;;8.42;64.25;99547.31;4956433;28;20048;-61
2022/09/29 06:18:43;;;;;;;32.97;15.52;;;;;;;8.32;64.25;99543.03;4954527;28;20062;-63
2022/09/29 06:21:11;;;;;;;31.40;16.25;;;;;;;8.08;65.21;99546.63;4954826;28;20051;-65
2022/09/29 06:23:39;;;;;;;68.53;19.50;;;;;;;8.14;65.03;99551.28;4955340;28;20050;-64
2022/09/29 06:26:08;;;;;;;32.08;17.38;;;;;;;8.19;64.56;99548.09;4955196;28;20051;-68
2022/09/29 06:28:35;;;;;;;30.75;17.95;;;;;;;8.10;64.89;99549.13;4956440;28;20051;-63
2022/09/29 06:31:11;;;;;;;26.33;16.63;;;;;;;8.01;65.03;99545.66;4955108;28;20431;-62
2022/09/29 06:33:38;;;;;;;32.97;16.42;;;;;;;8.03;65.32;99546.31;4954123;28;20058;-62
2022/09/29 06:39:14;;;;;;;27.95;17.38;;;;;;;7.85;65.43;99551.91;4953826;28;20051;-62
2022/09/29 06:41:43;;;;;;;38.38;18.48;;;;;;;7.70;66.61;99547.38;4953414;28;20039;-63
2022/09/29 06:44:10;;;;;;;34.65;18.65;;;;;;;7.26;66.92;99551.28;4953713;28;20053;-62
2022/09/29 06:46:36;;;;;;;26.52;18.58;;;;;;;7.47;66.86;99553.44;4953602;28;20054;-64
2022/09/29 06:49:03;;;;;;;28.95;19.63;;;;;;;7.61;66.48;99554.59;4954951;28;20039;-62
2022/09/29 06:51:29;;;;;;;33.35;20.25;;;;;;;7.34;67.30;99558.44;4953781;28;20054;-64
2022/09/29 06:54:11;;;;;;;38.10;19.98;;;;;;;7.56;66.40;99560.41;4954897;28;20104;-65
2022/09/29 06:56:38;;;;;;;35.28;20.27;;;;;;;7.68;65.92;99560.09;4953340;28;20047;-64
2022/09/29 06:59:05;;;;;;;33.42;20.17;;;;;;;7.38;66.80;99559.78;4955177;28;20118;-62
2022/09/29 07:01:32;;;;;;;32.25;19.83;;;;;;;7.54;66.66;99565.09;4954598;28;20054;-62
2022/09/29 07:04:01;;;;;;;38.10;21.67;;;;;;;7.94;65.68;99562.53;4954115;28;20043;-62
2022/09/29 07:06:30;;;;;;;31.02;19.77;;;;;;;7.95;65.16;99557.03;4953589;28;20074;-62
2022/09/29 07:08:58;;;;;;;33.33;20.30;;;;;;;8.01;65.39;99555.50;4955437;28;20051;-62
2022/09/29 07:11:25;;;;;;;32.90;20.45;;;;;;;8.12;65.04;99561.31;4953720;28;20054;-62
2022/09/29 07:13:52;;;;;;;36.90;22.35;;;;;;;8.02;64.99;99568.72;4954645;29;20054;-61
2022/09/29 07:16:22;;;;;;;33.72;21.88;;;;;;;7.63;66.09;99564.06;4953913;28;20078;-62
2022/09/29 07:18:50;;;;;;;33.13;19.88;;;;;;;7.95;65.43;99562.38;4945103;28;20075;-63
2022/09/29 07:21:17;;;;;;;37.83;20.67;;;;;;;8.07;65.08;99571.69;4953663;29;20482;-65
2022/09/29 07:23:45;;;;;;;33.15;20.50;;;;;;;8.31;64.45;99575.28;4954741;29;20059;-64
2022/09/29 07:26:13;;;;;;;38.00;21.25;;;;;;;8.30;64.20;99584.31;4954545;29;20499;-65
2022/09/29 07:28:40;;;;;;;31.33;20.55;;;;;;;8.09;64.73;99574.19;4953396;29;20057;-65
2022/09/29 07:31:10;;;;;;;35.20;21.48;;;;;;;8.27;64.67;99590.00;4954376;29;20043;-69
2022/09/29 07:33:44;;;;;;;35.92;20.48;;;;;;;8.50;63.63;99585.53;4954353;29;20054;-66
2022/09/29 07:36:12;;;;;;;37.45;20.73;;;;;;;8.51;63.66;99581.03;4954021;29;20138;-64
2022/09/29 07:38:39;;;;;;;34.45;21.60;;;;;;;8.72;63.17;99594.63;4953644;29;20047;-65
2022/09/29 07:41:09;;;;;;;30.77;20.42;;;;;;;8.73;63.19;99593.59;4956704;28;20130;-65
2022/09/29 07:43:36;;;;;;;34.95;19.80;;;;;;;8.99;62.43;99592.44;4956058;28;20125;-65
2022/09/29 07:46:03;;;;;;;32.13;20.58;;;;;;;9.14;61.80;99595.19;4946291;28;20047;-64
2022/09/29 07:48:31;;;;;;;33.40;21.85;;;;;;;8.93;62.78;99598.50;4954470;29;20114;-64
2022/09/29 07:51:01;;;;;;;29.98;20.00;;;;;;;9.17;61.98;99597.50;4954304;29;20043;-64
2022/09/29 07:53:30;;;;;;;40.47;21.95;;;;;;;9.00;62.38;99599.47;4954922;29;20051;-64
2022/09/29 07:56:20;;;;;;;34.90;19.75;;;;;;;8.74;63.28;99605.94;4954214;29;20043;-63
2022/09/29 07:58:51;;;;;;;32.80;21.10;;;;;;;9.22;61.93;99606.66;4954322;29;20053;-65
2022/09/29 08:01:18;;;;;;;36.25;20.02;;;;;;;9.18;61.85;99605.34;4954028;29;20415;-65
2022/09/29 08:03:51;;;;;;;39.83;21.27;;;;;;;9.37;61.60;99609.44;4954145;29;20122;-65
2022/09/29 08:06:18;;;;;;;36.35;20.50;;;;;;;9.33;61.42;99616.13;4952424;29;20057;-66
2022/09/29 08:08:45;;;;;;;30.83;20.42;;;;;;;9.42;61.13;99617.75;4954607;29;20495;-65
2022/09/29 08:11:28;;;;;;;30.67;19.48;;;;;;;9.34;61.33;99623.19;4940246;28;20055;-64
2022/09/29 08:13:59;;;;;;;33.38;20.38;;;;;;;9.50;61.13;99622.19;4916672;29;20073;-63
2022/09/29 08:16:26;;;;;;;31.15;20.30;;;;;;;9.35;61.70;99624.00;4935345;29;20070;-64
2022/09/29 08:18:52;;;;;;;29.77;20.10;;;;;;;9.79;60.62;99619.59;4934999;29;20048;-64
2022/09/29 08:21:19;;;;;;;27.95;18.67;;;;;;;9.87;59.76;99629.41;4930680;29;20534;-64
2022/09/29 08:23:46;;;;;;;28.00;19.17;;;;;;;9.41;61.07;99634.81;4934284;29;20044;-65
2022/09/29 08:26:15;;;;;;;32.30;21.42;;;;;;;9.39;61.41;99626.13;4934404;29;20059;-70
2022/09/29 08:28:43;;;;;;;33.45;20.85;;;;;;;9.57;60.93;99629.31;4934632;29;20044;-64
2022/09/29 08:31:13;;;;;;;32.72;20.13;;;;;;;9.61;60.28;99624.44;4936160;29;20051;-65
2022/09/29 08:33:40;;;;;;;34.03;20.38;;;;;;;9.90;60.31;99630.88;4939417;29;20048;-64
2022/09/29 08:36:13;;;;;;;26.65;18.35;;;;;;;10.12;59.40;99631.81;4938729;29;20415;-65
2022/09/29 08:38:42;;;;;;;31.52;19.52;;;;;;;9.85;60.08;99635.94;4938642;29;20048;-65
2022/09/29 08:41:31;;;;;;;30.40;18.50;;;;;;;10.22;59.22;99630.53;4937688;29;20067;-64
2022/09/29 08:44:03;;;;;;;37.03;19.65;;;;;;;10.55;58.49;99637.38;4937520;29;20049;-64
2022/09/29 08:46:36;;;;;;;28.80;19.05;;;;;;;10.67;57.52;99639.41;4937734;29;20407;-64
2022/09/29 08:49:08;;;;;;;31.15;18.00;;;;;;;10.47;58.25;99641.81;4938061;29;20192;-64
2022/09/29 08:51:45;;;;;;;28.50;16.73;;;;;;;10.62;57.59;99641.84;4937826;29;20055;-64
2022/09/29 08:54:30;;;;;;;23.83;16.52;;;;;;;10.83;57.22;99646.44;4938255;29;20062;-64
2022/09/29 08:57:06;;;;;;;24.92;17.05;;;;;;;11.08;56.54;99646.09;4937866;29;20047;-64
2022/09/29 08:59:32;;;;;;;26.77;17.17;;;;;;;11.40;55.83;99647.44;4937850;29;20055;-64
2022/09/29 09:02:27;;;;;;;24.77;16.23;;;;;;;11.20;56.20;99648.06;4938043;29;20060;-64
2022/09/29 09:04:54;;;;;;;22.27;15.88;;;;;;;11.56;55.15;99643.69;4937190;29;20070;-64
2022/09/29 09:07:34;;;;;;;23.55;15.63;;;;;;;11.73;54.59;99653.16;4937653;29;20051;-65
2022/09/29 09:10:13;;;;;;;19.80;14.13;;;;;;;11.88;53.99;99655.75;4939027;29;20055;-65
2022/09/29 09:13:04;;;;;;;28.40;14.23;;;;;;;11.83;54.25;99659.03;4954989;29;20669;-64
2022/09/29 09:15:46;;;;;;;21.43;13.53;;;;;;;11.60;54.46;99656.53;4956057;29;20047;-65
2022/09/29 09:18:35;;;;;;;17.88;12.23;;;;;;;12.31;52.65;99655.63;4948503;29;20282;-65
2022/09/29 09:21:15;;;;;;;19.83;12.98;;;;;;;12.24;52.69;99655.59;4939674;29;20039;-64
2022/09/29 09:24:07;;;;;;;20.40;13.23;;;;;;;12.22;52.41;99663.03;4957280;29;20047;-64
2022/09/29 09:26:41;;;;;;;22.05;14.23;;;;;;;12.16;53.21;99658.44;4938756;29;20047;-64
2022/09/29 09:29:29;;;;;;;19.92;12.90;;;;;;;12.44;52.25;99658.41;4956427;29;20721;-64
2022/09/29 09:32:06;;;;;;;16.73;12.13;;;;;;;12.75;51.76;99660.66;4956655;29;20102;-64
2022/09/29 09:34:52;;;;;;;29.92;13.93;;;;;;;13.02;51.00;99668.84;4956954;29;20054;-64
2022/09/29 09:37:34;;;;;;;25.08;14.18;;;;;;;13.42;49.80;99674.31;4956598;29;20055;-65
2022/09/29 09:40:22;;;;;;;17.75;12.52;;;;;;;12.62;51.06;99668.63;4956562;29;20043;-63
2022/09/29 09:42:57;;;;;;;18.40;12.05;;;;;;;13.24;50.19;99674.91;4955534;28;20138;-65
2022/09/29 09:45:53;;;;;;;18.77;11.55;;;;;;;14.16;48.25;99671.50;4955889;29;20058;-63
2022/09/29 09:48:24;;;;;;;18.33;10.27;;;;;;;14.12;47.00;99677.53;4955895;29;20078;-64
2022/09/29 09:51:00;;;;;;;14.90;10.90;;;;;;;14.45;46.59;99674.75;4956532;29;20067;-64
2022/09/29 09:53:38;;;;;;;16.17;10.27;;;;;;;16.20;42.15;99672.56;4957017;29;20073;-64
2022/09/29 09:56:56;;;;;;;13.93;8.55;;;;;;;17.36;40.03;99676.22;4955954;29;20047;-64
2022/09/29 09:59:42;;;;;;;12.50;7.75;;;;;;;18.29;38.10;99677.47;4876963;29;20049;-65
2022/09/29 10:02:19;;;;;;;9.80;7.45;;;;;;;18.69;37.21;99674.84;4877013;29;20165;-63
2022/09/29 10:04:51;;;;;;;11.88;7.00;;;;;;;18.18;37.88;99681.03;4877769;29;20049;-63
2022/09/29 10:07:21;;;;;;;12.70;6.78;;;;;;;19.17;35.49;99687.28;4877609;29;20045;-65
2022/09/29 10:09:47;;;;;;;8.90;6.35;;;;;;;19.97;33.96;99685.47;4877803;29;20049;-64
2022/09/29 10:12:17;;;;;;;11.85;6.32;;;;;;;18.76;36.26;99682.88;4876771;29;20116;-63
2022/09/29 10:14:51;;;;;;;11.18;7.32;;;;;;;18.15;36.91;99685.03;4876088;29;20045;-63
2022/09/29 10:17:23;;;;;;;7.28;6.35;;;;;;;17.93;37.17;99687.47;4877021;29;20151;-63
2022/09/29 10:20:04;;;;;;;11.65;6.85;;;;;;;17.74;37.46;99688.59;4877498;29;20057;-63
2022/09/29 10:22:31;;;;;;;9.05;6.40;;;;;;;17.46;38.14;99687.34;4875810;29;20433;-63
2022/09/29 10:25:18;;;;;;;8.00;6.60;;;;;;;17.26;37.79;99687.59;4876657;29;20067;-63
2022/09/29 10:27:52;;;;;;;8.43;6.70;;;;;;;15.69;40.49;99687.94;4876846;29;20506;-63
2022/09/29 10:30:22;;;;;;;8.90;6.97;;;;;;;15.44;40.82;99684.34;4876734;29;20507;-64
2022/09/29 10:32:55;;;;;;;6.45;5.20;;;;;;;15.48;40.51;99683.69;4891454;29;20099;-63
2022/09/29 10:35:25;;;;;;;9.75;5.55;;;;;;;14.90;42.26;99699.16;4915307;29;20051;-69
2022/09/29 10:38:04;;;;;;;8.55;6.53;;;;;;;14.62;43.17;99697.56;4917220;29;20044;-69
2022/09/29 10:40:32;;;;;;;8.35;6.22;;;;;;;15.03;42.02;99695.59;4916760;29;20509;-64
2022/09/29 10:43:22;;;;;;;10.30;6.25;;;;;;;14.80;42.45;99698.78;4916836;29;20699;-64
2022/09/29 10:45:49;;;;;;;6.53;5.63;;;;;;;14.26;43.11;99698.88;4917149;29;20134;-63
2022/09/29 10:48:17;;;;;;;10.00;6.45;;;;;;;13.88;44.23;99689.78;4916423;29;20407;-64
2022/09/29 10:51:04;;;;;;;10.07;6.93;;;;;;;12.63;46.47;99703.44;4917510;29;20048;-63
2022/09/29 10:53:39;;;;;;;9.85;6.53;;;;;;;13.30;46.25;99701.88;4916153;29;20040;-64
2022/09/29 10:56:16;;;;;;;23.17;6.82;;;;;;;14.06;44.81;99698.06;4912913;29;20052;-63
2022/09/29 10:58:57;;;;;;;8.23;6.22;;;;;;;14.45;43.88;99690.94;4916759;29;20060;-63
2022/09/29 11:01:34;;;;;;;8.90;6.75;;;;;;;14.77;43.36;99706.28;4915804;29;20047;-64
2022/09/29 11:04:05;;;;;;;9.65;6.32;;;;;;;14.96;42.74;99701.00;4935377;29;20051;-64
2022/09/29 11:06:34;;;;;;;8.85;6.22;;;;;;;15.11;42.17;99696.16;4935801;29;20048;-64
2022/09/29 11:09:26;;;;;;;9.77;5.43;;;;;;;15.19;41.89;99692.41;4935316;29;20158;-63
2022/09/29 11:11:55;;;;;;;7.70;4.72;;;;;;;15.52;40.91;99694.91;4932520;29;20068;-64
2022/09/29 11:14:40;;;;;;;12.50;5.60;;;;;;;15.21;40.89;99701.94;4954611;28;20043;-64
2022/09/29 11:17:23;;;;;;;9.70;4.00;;;;;;;15.37;40.04;99706.00;4954283;29;20043;-64
2022/09/29 11:19:59;;;;;;;6.85;3.75;;;;;;;15.00;39.31;99713.88;4953811;28;20051;-63
2022/09/29 11:22:41;;;;;;;5.68;3.40;;;;;;;14.68;40.00;99712.91;4953332;29;20047;-64
2022/09/29 11:25:21;;;;;;;4.88;3.63;;;;;;;14.45;40.80;99716.06;4954041;28;20055;-63
2022/09/29 11:28:03;;;;;;;10.32;3.70;;;;;;;14.03;41.58;99717.34;4954097;29;20049;-63
2022/09/29 11:30:58;;;;;;;7.18;3.13;;;;;;;13.96;41.16;99720.03;4954030;29;20411;-65
2022/09/29 11:33:37;;;;;;;4.97;3.35;;;;;;;14.00;41.16;99717.75;4953721;29;20130;-63
2022/09/29 11:36:20;;;;;;;4.68;3.42;;;;;;;13.88;42.12;99706.78;4953510;29;20047;-63
2022/09/29 11:39:05;;;;;;;6.53;4.13;;;;;;;13.73;42.55;99719.56;4953905;29;20077;-63
2022/09/29 11:41:34;;;;;;;10.10;3.03;;;;;;;13.77;42.12;99721.69;4953652;29;20054;-63
2022/09/29 11:44:19;;;;;;;4.72;3.53;;;;;;;12.92;43.75;99723.06;4954180;29;20046;-63
2022/09/29 11:46:46;;;;;;;4.47;3.70;;;;;;;13.62;42.18;99733.66;4953972;28;20050;-63
2022/09/29 11:49:40;;;;;;;6.07;3.30;;;;;;;13.91;41.82;99721.69;4953312;29;20055;-63
2022/09/29 11:52:21;;;;;;;4.63;3.67;;;;;;;13.91;42.29;99727.06;4958080;29;20062;-70
2022/09/29 11:55:08;;;;;;;;;;;;;;;13.83;42.81;99726.25;4965235;28;20058;-72
2022/09/29 11:57:53;;;;;;;8.82;4.20;;;;;;;14.18;42.24;99717.94;4963063;28;19929;-71
2022/09/29 12:00:26;;;;;;;5.97;4.00;;;;;;;14.15;42.38;99722.94;4964491;29;20055;-71
2022/09/29 12:02:53;;;;;;;7.28;3.83;;;;;;;14.28;41.96;99721.06;4965024;29;20430;-72
2022/09/29 12:05:34;;;;;;;6.78;4.13;;;;;;;13.55;43.05;99728.25;4945560;29;20055;-72
2022/09/29 12:08:23;;;;;;;28.50;5.55;;;;;;;13.93;41.92;99731.22;4962976;29;20115;-72
2022/09/29 12:11:09;;;;;;;9.10;4.38;;;;;;;14.63;40.28;99726.19;4962775;29;20050;-73
2022/09/29 12:14:19;;;;;;;4.68;3.15;;;;;;;14.03;39.83;99730.84;4960631;29;20133;-72
2022/09/29 12:16:53;;;;;;;3.30;2.22;;;;;;;13.43;39.55;99730.72;4959378;28;20111;-73
2022/09/29 12:19:25;;;;;;;7.70;2.38;;;;;;;13.82;39.35;99729.97;4961206;29;20055;-72
2022/09/29 12:21:54;;;;;;;4.28;2.58;;;;;;;14.12;39.15;99734.16;4961888;29;20115;-73
2022/09/29 12:24:53;;;;;;;13.35;2.75;;;;;;;13.95;39.83;99736.44;4962762;29;20047;-72
2022/09/29 12:27:36;;;;;;;15.93;4.88;;;;;;;12.97;43.90;99727.84;4959150;29;20047;-72
2022/09/29 12:30:14;;;;;;;7.55;4.82;;;;;;;12.69;45.24;99725.19;4959982;29;20055;-71
2022/09/29 12:32:49;;;;;;;8.15;5.03;;;;;;;12.75;45.72;99722.56;4958416;29;20055;-72
2022/09/29 12:35:23;;;;;;;8.48;4.82;;;;;;;13.01;45.00;99723.75;4958618;29;20074;-72
2022/09/29 12:37:59;;;;;;;5.57;4.18;;;;;;;13.28;44.52;99721.94;4958054;28;20058;-72
2022/09/29 12:40:37;;;;;;;26.58;6.40;;;;;;;12.97;45.19;99722.44;4957881;29;20043;-73
2022/09/29 12:43:10;;;;;;;6.40;4.32;;;;;;;11.90;46.91;99721.72;4957784;29;20044;-71
2022/09/29 12:46:23;;;;;;;5.88;4.20;;;;;;;12.39;45.96;99720.03;4957777;29;20126;-72
2022/09/29 12:49:07;;;;;;;11.75;4.43;;;;;;;12.76;45.23;99718.81;4956271;29;20341;-72
2022/09/29 12:51:43;;;;;;;6.95;4.30;;;;;;;13.63;43.37;99721.81;4956462;29;20054;-72
2022/09/29 12:54:15;;;;;;;5.50;3.80;;;;;;;14.71;40.74;99727.88;4956060;29;20415;-73
2022/09/29 12:57:14;;;;;;;5.20;3.67;;;;;;;14.54;40.21;99730.19;4956135;28;20047;-73
2022/09/29 12:59:56;;;;;;;7.45;3.72;;;;;;;14.14;41.28;99732.91;4954260;29;20510;-72
2022/09/29 13:02:47;;;;;;;5.20;3.17;;;;;;;13.68;42.00;99724.75;4956058;29;20055;-72
2022/09/29 13:05:33;;;;;;;4.30;2.85;;;;;;;14.05;41.07;99731.47;4955763;29;20057;-72
2022/09/29 13:08:48;;;;;;;4.53;2.85;;;;;;;14.05;40.97;99732.28;4956812;29;20043;-73
2022/09/29 13:11:56;;;;;;;4.70;3.20;;;;;;;13.65;41.34;99733.25;4928319;29;20138;-73
2022/09/29 13:14:52;;;;;;;4.15;2.70;;;;;;;14.06;41.13;99727.72;4938964;29;20067;-72
2022/09/29 13:17:40;;;;;;;6.35;2.78;;;;;;;14.30;40.37;99734.34;4940500;29;20056;-73
2022/09/29 13:20:54;;;;;;;3.97;2.40;;;;;;;14.29;39.65;99741.63;4942645;29;20054;-78
2022/09/29 13:23:47;;;;;;;3.80;2.35;;;;;;;14.29;39.00;99738.94;4948378;29;20055;-77
2022/09/29 13:26:33;;;;;;;4.88;2.10;;;;;;;13.97;39.42;99742.44;4954325;29;20048;-78
2022/09/29 13:29:15;;;;;;;3.17;1.92;;;;;;;14.30;37.96;99742.44;4954751;28;20051;-77
2022/09/29 13:31:45;;;;;;;4.78;1.83;;;;;;;14.51;37.60;99744.09;4954370;28;20134;-78
2022/09/29 13:34:20;;;;;;;2.97;1.95;;;;;;;14.02;38.80;99745.38;4954568;29;20055;-77
2022/09/29 13:36:48;;;;;;;3.30;2.20;;;;;;;13.76;39.76;99751.53;4954041;29;20047;-77
2022/09/29 13:39:26;;;;;;;3.55;2.50;;;;;;;13.78;40.38;99744.91;4954092;28;20489;-76
2022/09/29 13:41:54;;;;;;;4.15;2.47;;;;;;;14.15;39.98;99748.06;4953631;29;20062;-77
2022/09/29 13:44:27;;;;;;;2.50;1.85;;;;;;;13.33;39.53;99754.50;4954625;28;20055;-77
2022/09/29 13:46:55;;;;;;;3.47;1.52;;;;;;;13.61;37.22;99751.69;4955348;29;20472;-76
2022/09/29 13:49:31;;;;;;;1.90;1.42;;;;;;;13.41;37.19;99758.88;4954690;28;20063;-78
2022/09/29 13:52:09;;;;;;;2.50;1.63;;;;;;;13.78;37.76;99761.09;4954916;29;20054;-76
2022/09/29 13:54:40;;;;;;;4.38;2.30;;;;;;;13.79;38.24;99762.75;4954558;29;20051;-77
2022/09/29 13:57:07;;;;;;;2.35;2.03;;;;;;;14.21;38.07;99755.31;4954591;29;20047;-77
2022/09/29 13:59:35;;;;;;;4.40;2.60;;;;;;;14.16;38.56;99763.22;4954618;28;20496;-77
2022/09/29 14:02:19;;;;;;;2.33;1.73;;;;;;;14.08;38.56;99771.50;4954481;29;20047;-77
2022/09/29 14:04:48;;;;;;;5.57;2.78;;;;;;;13.95;39.51;99777.72;4954952;29;20054;-77
2022/09/29 14:07:47;;;;;;;3.95;1.98;;;;;;;14.40;38.71;99766.31;4954622;28;20130;-76
2022/09/29 14:10:21;;;;;;;4.68;2.20;;;;;;;14.28;39.13;99766.91;4889539;29;20130;-77
2022/09/29 14:12:53;;;;;;;3.45;2.00;;;;;;;14.42;38.88;99772.31;4955697;29;20058;-70
2022/09/29 14:15:21;;;;;;;3.65;2.20;;;;;;;14.42;38.86;99780.41;4954374;29;20051;-70
2022/09/29 14:17:55;;;;;;;2.35;2.00;;;;;;;14.29;39.17;99771.31;4942445;28;20051;-70
2022/09/29 14:20:30;;;;;;;6.43;2.50;;;;;;;14.15;38.97;99772.34;4954138;28;20062;-70
2022/09/29 14:23:04;;;;;;;3.95;2.65;;;;;;;13.98;39.54;99776.47;4953976;29;20047;-70
2022/09/29 14:25:40;;;;;;;4.65;2.28;;;;;;;14.16;39.19;99786.66;4954168;29;20047;-70
2022/09/29 14:28:18;;;;;;;5.00;2.65;;;;;;;13.86;40.26;99783.50;4954133;28;20047;-70
2022/09/29 14:30:49;;;;;;;4.13;1.92;;;;;;;14.20;39.65;99788.72;4953381;29;20483;-70
2022/09/29 14:33:21;;;;;;;2.65;2.10;;;;;;;14.05;39.84;99788.94;4944969;28;20053;-71
2022/09/29 14:35:53;;;;;;;2.83;2.15;;;;;;;14.15;39.45;99793.06;4952310;28;20043;-70
2022/09/29 14:38:24;;;;;;;3.30;2.40;;;;;;;13.72;40.15;99786.13;4954419;29;20059;-70
2022/09/29 14:40:57;;;;;;;3.20;2.03;;;;;;;13.49;39.85;99789.19;4953143;29;20050;-70
2022/09/29 14:43:36;;;;;;;6.95;2.53;;;;;;;13.14;40.05;99785.69;4953162;29;20077;-70
2022/09/29 14:52:45;;;;;;;3.60;1.80;;;;;;;13.56;39.85;99797.25;4951580;28;20054;-70
2022/09/29 14:55:37;;;;;;;3.45;2.10;;;;;;;12.65;42.49;99808.16;4952642;29;20051;-70
2022/09/29 14:58:22;;;;;;;3.90;2.15;;;;;;;12.53;43.18;99802.50;4951916;29;20407;-70
2022/09/29 15:01:08;;;;;;;2.10;1.90;;;;;;;12.32;43.01;99814.13;4951803;28;20047;-70
2022/09/29 15:03:44;;;;;;;9.32;2.30;;;;;;;12.42;42.76;99805.72;4951034;28;20043;-70
2022/09/29 15:06:16;;;;;;;2.95;2.35;;;;;;;12.78;42.60;99808.28;4952330;29;20386;-71
2022/09/29 15:09:01;;;;;;;6.63;3.05;;;;;;;12.86;42.67;99810.00;4952290;29;20155;-70